Stoneham, Massachusetts
Current Conditions -  °F | °C
As of 10:56 AM on Saturday 25 Oct 2014 (Local Time) from KBED Reporting Station
Clear Clear  
Wind Chill: 58°   Ceiling: Unl
Heat Index: 58°   Visibility: 10mi
Dew Point: 43°   Wind: 9mph
Humidity: 58%   Direction: 280°W
Pressure: 29.71"   Gusts: NA
Location:  42.48°N, 71.1°W
Report Text: KBED 251456Z 28008KT 10SM CLR 14/06 A2971 RMK AO2 SLP075 T01440061 58014
Loading
Personal Weather Stations






























Interactive Weather Map
Tropical Storm Tracking
New forecast layout! Learn more

10-Day Weather Forecast

Advertisements
Track Severe Weather on mobile